createdAt,value
2018-09-24T00:00:02.282Z,75.90
2018-09-24T00:02:30.427Z,74.80
2018-09-24T00:04:58.568Z,75.30
2018-09-24T00:07:26.638Z,74.70
2018-09-24T00:09:54.940Z,75.00
2018-09-24T00:12:23.108Z,74.30
2018-09-24T00:14:51.438Z,73.90
2018-09-24T00:17:19.615Z,73.80
2018-09-24T00:19:47.714Z,75.20
2018-09-24T00:22:15.878Z,74.20
2018-09-24T00:24:43.935Z,74.70
2018-09-24T00:27:12.500Z,74.10
2018-09-24T00:29:40.591Z,75.60
2018-09-24T00:32:08.698Z,74.70
2018-09-24T00:34:36.853Z,74.90
2018-09-24T00:37:05.127Z,75.50
2018-09-24T00:39:33.181Z,75.40
2018-09-24T00:42:01.420Z,75.40
2018-09-24T00:44:29.662Z,74.60
2018-09-24T00:46:57.877Z,76.30
2018-09-24T00:49:26.060Z,75.50
2018-09-24T00:51:54.198Z,74.80
2018-09-24T00:54:22.363Z,74.40
2018-09-24T00:56:51.195Z,74.80
2018-09-24T00:59:19.374Z,75.20
2018-09-24T01:01:47.458Z,74.40
2018-09-24T01:04:15.557Z,74.00
2018-09-24T01:06:43.750Z,75.30
2018-09-24T01:09:12.323Z,75.40
2018-09-24T01:11:40.586Z,74.40
2018-09-24T01:14:08.950Z,73.40
2018-09-24T01:16:37.127Z,74.00
2018-09-24T01:19:05.286Z,75.10
2018-09-24T01:21:33.363Z,75.30
2018-09-24T01:24:01.538Z,73.70
2018-09-24T01:26:29.680Z,74.30
2018-09-24T01:28:57.942Z,75.60
2018-09-24T01:31:26.182Z,74.30
2018-09-24T01:33:54.349Z,75.10
2018-09-24T01:36:22.463Z,74.70
2018-09-24T01:38:51.226Z,74.60
2018-09-24T01:41:19.286Z,74.60
2018-09-24T01:43:47.339Z,73.00
2018-09-24T01:46:15.390Z,72.40
2018-09-24T01:48:43.470Z,74.30
2018-09-24T01:51:11.619Z,73.60
2018-09-24T01:53:39.794Z,74.00
2018-09-24T01:56:07.974Z,73.50
2018-09-24T01:58:37.861Z,73.30
2018-09-24T02:01:07.101Z,74.00
2018-09-24T02:03:35.515Z,73.90
2018-09-24T02:06:04.797Z,74.00
2018-09-24T02:08:41.269Z,73.30
2018-09-24T02:11:09.664Z,74.20
2018-09-24T02:13:45.470Z,73.80
2018-09-24T02:16:13.682Z,74.00
2018-09-24T02:18:42.511Z,74.40
2018-09-24T02:21:11.436Z,75.00
2018-09-24T02:23:39.777Z,74.90
2018-09-24T02:26:08.388Z,75.80
2018-09-24T02:28:36.504Z,76.10
2018-09-24T02:31:04.554Z,75.70
2018-09-24T02:33:32.821Z,77.00
2018-09-24T02:36:01.003Z,75.70
2018-09-24T02:38:29.905Z,76.20
2018-09-24T02:40:58.005Z,76.90
2018-09-24T02:43:26.187Z,76.00
2018-09-24T02:45:55.324Z,76.00
2018-09-24T02:48:24.602Z,76.60
2018-09-24T02:50:52.830Z,77.80
2018-09-24T02:53:21.141Z,77.30
2018-09-24T02:55:49.347Z,77.40
2018-09-24T02:58:19.376Z,77.40
2018-09-24T03:00:47.706Z,77.90
2018-09-24T03:03:15.973Z,77.60
2018-09-24T03:05:44.358Z,78.40
2018-09-24T03:08:13.497Z,78.70
2018-09-24T03:10:41.816Z,78.80
2018-09-24T03:13:10.059Z,78.90
2018-09-24T03:15:40.793Z,80.30
2018-09-24T03:18:09.847Z,80.70
2018-09-24T03:20:40.011Z,80.40
2018-09-24T03:23:08.500Z,80.30
2018-09-24T03:25:37.061Z,80.70
2018-09-24T03:28:05.342Z,81.20
2018-09-24T03:30:40.032Z,80.80
2018-09-24T03:33:08.111Z,80.70
2018-09-24T03:35:36.298Z,80.70
2018-09-24T03:38:04.520Z,81.10
2018-09-24T03:40:32.664Z,80.50
2018-09-24T03:43:00.853Z,83.00
2018-09-24T03:45:29.617Z,82.40
2018-09-24T03:47:57.940Z,82.60
2018-09-24T03:50:26.053Z,82.90
2018-09-24T03:52:54.708Z,81.90
2018-09-24T03:55:28.160Z,81.20
2018-09-24T03:57:56.359Z,81.10
2018-09-24T04:00:24.634Z,80.60
2018-09-24T04:02:52.789Z,80.70
2018-09-24T04:05:26.664Z,80.40
2018-09-24T04:08:00.398Z,80.80
2018-09-24T04:10:34.114Z,80.80
2018-09-24T04:13:07.904Z,80.90
2018-09-24T04:15:41.703Z,80.80
2018-09-24T04:18:16.062Z,81.00
2018-09-24T04:20:49.631Z,78.70
2018-09-24T04:23:23.402Z,79.90
2018-09-24T04:25:57.116Z,78.80
2018-09-24T04:28:30.892Z,78.10
2018-09-24T04:31:05.065Z,77.30
2018-09-24T04:33:38.883Z,77.70
2018-09-24T04:36:12.774Z,76.50
2018-09-24T04:38:46.554Z,77.80
2018-09-24T04:41:20.307Z,77.80
2018-09-24T04:43:54.003Z,77.50
2018-09-24T04:46:27.796Z,77.70
2018-09-24T04:49:01.661Z,78.00
2018-09-24T04:51:35.325Z,77.60
2018-09-24T04:54:09.756Z,77.90
2018-09-24T04:56:43.494Z,78.40
2018-09-24T04:59:17.249Z,78.30
2018-09-24T05:01:50.932Z,78.50
2018-09-24T05:04:24.870Z,79.30
2018-09-24T05:06:58.589Z,80.00
2018-09-24T05:09:32.542Z,80.00
2018-09-24T05:12:06.181Z,80.40
2018-09-24T05:14:39.970Z,79.50
2018-09-24T05:17:14.849Z,80.40
2018-09-24T05:19:48.387Z,80.30
2018-09-24T05:22:22.184Z,80.00
2018-09-24T05:24:57.159Z,79.70
2018-09-24T05:27:31.158Z,80.10
2018-09-24T05:30:05.371Z,80.30
2018-09-24T05:32:39.095Z,80.30
2018-09-24T05:35:12.814Z,80.30
2018-09-24T05:37:46.550Z,79.30
2018-09-24T05:40:20.301Z,79.20
2018-09-24T05:42:54.089Z,78.60
2018-09-24T05:45:27.805Z,79.00
2018-09-24T05:48:02.707Z,78.40
2018-09-24T05:50:36.472Z,78.60
2018-09-24T05:53:10.298Z,78.10
2018-09-24T05:55:44.053Z,77.50
2018-09-24T05:58:18.001Z,77.60
2018-09-24T06:00:51.847Z,77.10
2018-09-24T06:03:25.674Z,75.70
2018-09-24T06:05:59.484Z,75.50
2018-09-24T06:08:33.987Z,75.90
2018-09-24T06:11:07.562Z,74.80
2018-09-24T06:13:41.219Z,74.40
2018-09-24T06:16:15.212Z,74.70
2018-09-24T06:18:48.993Z,74.40
2018-09-24T06:21:22.898Z,73.70
2018-09-24T06:23:56.748Z,73.40
2018-09-24T06:26:30.471Z,73.50
2018-09-24T06:29:04.165Z,73.10
2018-09-24T06:31:37.972Z,72.10
2018-09-24T06:34:11.828Z,72.40
2018-09-24T06:36:45.459Z,71.00
2018-09-24T06:39:19.060Z,71.00
2018-09-24T06:41:52.863Z,71.00
2018-09-24T06:44:27.383Z,71.20
2018-09-24T06:47:01.105Z,70.40
2018-09-24T06:49:34.903Z,69.10
2018-09-24T06:52:08.703Z,68.70
2018-09-24T06:54:42.563Z,67.60
2018-09-24T06:57:16.230Z,67.80
2018-09-24T06:59:50.204Z,65.70
2018-09-24T07:02:23.967Z,65.90
2018-09-24T07:04:57.685Z,65.20
2018-09-24T07:07:31.508Z,64.50
2018-09-24T07:10:05.251Z,63.80
2018-09-24T07:12:39.053Z,63.60
2018-09-24T07:15:12.762Z,61.20
2018-09-24T07:17:46.482Z,58.20
2018-09-24T07:20:20.204Z,52.30
2018-09-24T07:22:54.033Z,46.50
2018-09-24T07:25:27.836Z,42.60
2018-09-24T07:28:02.467Z,38.30
2018-09-24T07:30:35.983Z,37.60
2018-09-24T07:33:09.881Z,35.20
2018-09-24T07:35:43.596Z,34.40
2018-09-24T07:38:17.351Z,33.00
2018-09-24T07:40:51.193Z,31.20
2018-09-24T07:43:25.183Z,29.10
2018-09-24T07:45:59.010Z,28.30
2018-09-24T07:48:39.733Z,27.40
2018-09-24T07:51:13.550Z,26.70
2018-09-24T07:53:47.305Z,26.90
2018-09-24T07:56:21.194Z,26.40
2018-09-24T07:58:54.962Z,25.70
2018-09-24T08:01:28.716Z,24.80
2018-09-24T08:04:02.293Z,26.60
2018-09-24T08:06:36.067Z,25.30
2018-09-24T08:09:11.808Z,25.10
2018-09-24T08:11:45.730Z,25.00
2018-09-24T08:14:19.808Z,24.80
2018-09-24T08:16:53.609Z,24.60
2018-09-24T08:19:27.433Z,23.60
2018-09-24T08:22:01.225Z,22.60
2018-09-24T08:24:35.117Z,22.50
2018-09-24T08:27:08.823Z,23.70
2018-09-24T08:29:42.597Z,23.20
2018-09-24T08:32:16.375Z,23.80
2018-09-24T08:34:50.136Z,22.80
2018-09-24T08:37:23.847Z,22.00
2018-09-24T08:39:57.682Z,21.00
2018-09-24T08:42:31.387Z,19.70
2018-09-24T08:45:04.903Z,20.70
2018-09-24T08:47:38.589Z,19.10
2018-09-24T08:50:12.491Z,20.50
2018-09-24T08:52:46.396Z,23.40
2018-09-24T08:55:20.210Z,24.80
2018-09-24T08:57:54.479Z,25.70
2018-09-24T09:00:28.232Z,26.70
2018-09-24T09:03:01.999Z,28.60
2018-09-24T09:05:35.887Z,28.60
2018-09-24T09:08:09.694Z,28.90
2018-09-24T09:10:43.301Z,29.30
2018-09-24T09:13:17.247Z,31.00
2018-09-24T09:15:51.085Z,32.00
2018-09-24T09:18:24.802Z,32.50
2018-09-24T09:20:58.340Z,33.00
2018-09-24T09:23:32.063Z,34.80
2018-09-24T09:26:05.780Z,34.10
2018-09-24T09:28:39.571Z,36.20
2018-09-24T09:31:13.291Z,36.90
2018-09-24T09:33:47.154Z,36.90
2018-09-24T09:36:20.965Z,38.50
2018-09-24T09:38:54.711Z,37.00
2018-09-24T09:41:28.564Z,38.00
2018-09-24T09:44:02.324Z,37.30
2018-09-24T09:46:36.095Z,37.80
2018-09-24T09:49:09.766Z,37.50
2018-09-24T09:51:43.562Z,36.70
2018-09-24T09:54:17.402Z,37.40
2018-09-24T09:56:51.254Z,35.80
2018-09-24T09:59:25.104Z,38.70
2018-09-24T10:01:58.825Z,36.40
2018-09-24T10:04:33.293Z,36.40
2018-09-24T10:07:07.209Z,36.50
2018-09-24T10:09:40.954Z,38.20
2018-09-24T10:12:14.780Z,36.80
2018-09-24T10:14:48.560Z,35.50
2018-09-24T10:17:22.308Z,35.90
2018-09-24T10:19:56.050Z,36.20
2018-09-24T10:22:29.888Z,35.90
2018-09-24T10:25:03.676Z,36.50
2018-09-24T10:27:37.562Z,36.50
2018-09-24T10:30:12.270Z,32.80
2018-09-24T10:32:46.097Z,32.40
2018-09-24T10:35:19.920Z,32.20
2018-09-24T10:37:53.760Z,30.50
2018-09-24T10:40:27.524Z,29.60
2018-09-24T10:43:01.296Z,27.90
2018-09-24T10:45:34.962Z,27.70
2018-09-24T10:48:08.784Z,26.80
2018-09-24T10:50:42.344Z,27.40
2018-09-24T10:53:16.362Z,25.70
2018-09-24T10:55:50.164Z,23.80
2018-09-24T10:58:23.922Z,25.30
2018-09-24T11:00:57.547Z,27.90
2018-09-24T11:03:31.574Z,28.10
2018-09-24T11:06:05.331Z,28.80
2018-09-24T11:08:39.093Z,28.40
2018-09-24T11:11:12.863Z,28.50
2018-09-24T11:13:46.693Z,25.60
2018-09-24T11:16:20.587Z,24.10
2018-09-24T11:18:54.341Z,22.80
2018-09-24T11:21:28.172Z,22.10
2018-09-24T11:24:01.934Z,19.60
2018-09-24T11:26:35.538Z,18.10
2018-09-24T11:29:10.133Z,19.10
2018-09-24T11:31:43.978Z,19.30
2018-09-24T11:34:17.919Z,18.00
2018-09-24T11:36:51.680Z,17.30
2018-09-24T11:39:25.442Z,17.30
2018-09-24T11:41:59.242Z,15.50
2018-09-24T11:44:33.138Z,16.30
2018-09-24T11:47:06.973Z,16.10
2018-09-24T11:49:40.697Z,15.50
2018-09-24T11:52:14.477Z,15.50
2018-09-24T11:54:48.220Z,16.70
2018-09-24T11:57:21.971Z,15.40
2018-09-24T11:59:55.795Z,16.20
2018-09-24T12:02:30.082Z,16.00
2018-09-24T12:05:03.821Z,16.20
2018-09-24T12:07:37.588Z,15.60
2018-09-24T12:10:11.510Z,14.90
2018-09-24T12:12:45.239Z,16.00
2018-09-24T12:15:19.042Z,15.90
2018-09-24T12:17:52.770Z,15.50
2018-09-24T12:20:26.701Z,15.50
2018-09-24T12:23:00.445Z,15.20
2018-09-24T12:25:33.988Z,15.50
2018-09-24T12:28:07.886Z,17.10
2018-09-24T12:30:41.519Z,17.90
2018-09-24T12:33:15.140Z,20.60
2018-09-24T12:35:49.223Z,21.10
2018-09-24T12:38:22.965Z,22.10
2018-09-24T12:40:56.726Z,23.50
2018-09-24T12:43:30.537Z,23.50
2018-09-24T12:46:04.233Z,24.50
2018-09-24T12:48:38.613Z,26.00
2018-09-24T12:51:13.045Z,25.70
2018-09-24T12:53:46.939Z,25.30
2018-09-24T12:56:20.590Z,27.00
2018-09-24T12:58:54.382Z,25.90
2018-09-24T13:01:28.273Z,24.40
2018-09-24T13:04:01.906Z,21.60
2018-09-24T13:06:35.614Z,19.80
2018-09-24T13:09:10.822Z,22.50
2018-09-24T13:11:44.686Z,23.70
2018-09-24T13:14:18.394Z,24.00
2018-09-24T13:16:52.146Z,24.40
2018-09-24T13:19:26.084Z,22.30
2018-09-24T13:21:59.890Z,19.80
2018-09-24T13:24:33.622Z,19.70
2018-09-24T13:27:07.473Z,18.90
2018-09-24T13:29:41.127Z,20.10
2018-09-24T13:32:14.931Z,18.90
2018-09-24T13:34:48.824Z,19.70
2018-09-24T13:37:22.644Z,18.40
2018-09-24T13:39:56.284Z,17.70
2018-09-24T13:42:30.074Z,18.40
2018-09-24T13:45:04.000Z,17.80
2018-09-24T13:47:38.116Z,18.20
2018-09-24T13:50:12.179Z,17.70
2018-09-24T13:52:45.896Z,17.90
2018-09-24T13:55:19.648Z,18.30
2018-09-24T13:57:53.357Z,18.60
2018-09-24T14:00:27.168Z,19.90
2018-09-24T14:03:00.966Z,19.70
2018-09-24T14:05:34.735Z,21.20
2018-09-24T14:08:08.502Z,22.60
2018-09-24T14:10:42.212Z,21.70
2018-09-24T14:13:16.055Z,21.60
2018-09-24T14:15:49.839Z,21.80
2018-09-24T14:18:23.618Z,23.20
2018-09-24T14:20:57.425Z,23.70
2018-09-24T14:23:31.917Z,22.20
2018-09-24T14:26:06.679Z,21.40
2018-09-24T14:28:40.352Z,21.40
2018-09-24T14:31:14.075Z,22.40
2018-09-24T14:33:47.906Z,21.90
2018-09-24T14:36:21.748Z,21.50
2018-09-24T14:38:55.599Z,21.00
2018-09-24T14:41:29.337Z,20.60
2018-09-24T14:44:03.080Z,21.00
2018-09-24T14:46:36.792Z,22.10
2018-09-24T14:49:16.249Z,21.30
2018-09-24T14:51:50.157Z,21.90
2018-09-24T14:54:23.947Z,20.60
2018-09-24T14:56:57.826Z,22.00
2018-09-24T14:59:31.666Z,21.10
2018-09-24T15:02:05.364Z,23.40
2018-09-24T15:04:39.585Z,24.90
2018-09-24T15:07:13.477Z,24.30
2018-09-24T15:09:48.525Z,25.10
2018-09-24T15:12:22.372Z,26.00
2018-09-24T15:14:56.129Z,26.10
2018-09-24T15:17:29.886Z,26.40
2018-09-24T15:20:03.848Z,26.90
2018-09-24T15:22:37.881Z,26.30
2018-09-24T15:25:11.787Z,25.70
2018-09-24T15:27:45.636Z,24.60
2018-09-24T15:30:19.453Z,25.20
2018-09-24T15:32:53.412Z,24.50
2018-09-24T15:35:27.157Z,24.70
2018-09-24T15:38:01.007Z,24.70
2018-09-24T15:40:34.820Z,24.80
2018-09-24T15:43:10.407Z,24.40
2018-09-24T15:45:44.179Z,24.50
2018-09-24T15:48:18.011Z,24.50
2018-09-24T15:50:51.865Z,24.60
2018-09-24T15:53:25.683Z,24.80
2018-09-24T15:55:59.503Z,24.90
2018-09-24T15:58:33.225Z,24.90
2018-09-24T16:01:07.215Z,26.30
2018-09-24T16:03:40.946Z,26.00
2018-09-24T16:06:14.883Z,26.50
2018-09-24T16:08:48.753Z,27.30
2018-09-24T16:11:22.732Z,27.60
2018-09-24T16:13:56.436Z,28.10
2018-09-24T16:16:31.085Z,28.00
2018-09-24T16:19:04.789Z,28.00
2018-09-24T16:21:38.510Z,29.30
2018-09-24T16:24:12.223Z,28.30
2018-09-24T16:26:45.979Z,29.00
2018-09-24T16:29:19.968Z,29.20
2018-09-24T16:31:53.672Z,29.20
2018-09-24T16:34:27.557Z,29.00
2018-09-24T16:37:01.363Z,30.20
2018-09-24T16:39:35.688Z,30.10
2018-09-24T16:42:09.376Z,31.80
2018-09-24T16:44:44.113Z,30.40
2018-09-24T16:47:17.868Z,31.40
2018-09-24T16:49:51.507Z,31.90
2018-09-24T16:52:25.355Z,31.10
2018-09-24T16:54:59.183Z,33.40
2018-09-24T16:57:33.499Z,33.10
2018-09-24T17:00:07.526Z,33.40
2018-09-24T17:02:41.316Z,34.10
2018-09-24T17:05:15.115Z,35.30
2018-09-24T17:07:48.808Z,35.50
2018-09-24T17:10:22.549Z,36.10
2018-09-24T17:12:56.333Z,36.80
2018-09-24T17:15:30.103Z,35.80
2018-09-24T17:18:03.908Z,37.00
2018-09-24T17:20:37.668Z,36.80
2018-09-24T17:23:11.677Z,36.70
2018-09-24T17:25:45.467Z,37.60
2018-09-24T17:28:19.345Z,38.00
2018-09-24T17:30:53.849Z,39.20
2018-09-24T17:33:28.066Z,41.20
2018-09-24T17:36:01.789Z,40.10
2018-09-24T17:38:35.557Z,41.00
2018-09-24T17:41:09.444Z,41.00
2018-09-24T17:43:43.414Z,40.90
2018-09-24T17:46:17.227Z,40.80
2018-09-24T17:48:50.953Z,40.80
2018-09-24T17:51:25.242Z,41.40
2018-09-24T17:53:58.888Z,40.80
2018-09-24T17:56:32.781Z,40.80
2018-09-24T17:59:06.414Z,40.80
2018-09-24T18:01:40.331Z,40.80
2018-09-24T18:04:14.331Z,41.60
2018-09-24T18:06:48.179Z,42.40
2018-09-24T18:09:22.739Z,42.10
2018-09-24T18:11:56.462Z,42.00
2018-09-24T18:14:30.556Z,42.60
2018-09-24T18:17:04.646Z,42.70
2018-09-24T18:19:39.445Z,42.80
2018-09-24T18:22:13.302Z,42.80
2018-09-24T18:24:47.187Z,42.60
2018-09-24T18:27:21.225Z,42.60
2018-09-24T18:29:55.047Z,41.90
2018-09-24T18:32:28.754Z,42.50
2018-09-24T18:35:02.583Z,42.60
2018-09-24T18:37:36.425Z,43.70
2018-09-24T18:40:10.431Z,43.10
2018-09-24T18:42:44.394Z,45.30
2018-09-24T18:45:18.095Z,44.80
2018-09-24T18:47:51.913Z,46.50
2018-09-24T18:50:25.902Z,44.60
2018-09-24T18:52:59.675Z,45.50
2018-09-24T18:55:33.483Z,45.80
2018-09-24T18:58:07.338Z,47.20
2018-09-24T19:00:41.253Z,46.70
2018-09-24T19:03:15.039Z,46.10
2018-09-24T19:05:48.794Z,46.90
2018-09-24T19:08:22.493Z,47.10
2018-09-24T19:10:56.236Z,48.10
2018-09-24T19:13:30.016Z,50.10
2018-09-24T19:16:03.774Z,48.90
2018-09-24T19:18:37.448Z,48.20
2018-09-24T19:21:11.309Z,49.10
2018-09-24T19:23:45.502Z,48.70
2018-09-24T19:26:19.333Z,48.80
2018-09-24T19:28:53.124Z,47.70
2018-09-24T19:31:27.036Z,46.80
2018-09-24T19:34:00.954Z,46.60
2018-09-24T19:36:34.834Z,47.40
2018-09-24T19:39:08.848Z,46.50
2018-09-24T19:41:42.590Z,47.00
2018-09-24T19:44:16.242Z,47.10
2018-09-24T19:46:49.993Z,47.80
2018-09-24T19:49:23.770Z,47.60
2018-09-24T19:51:57.669Z,48.20
2018-09-24T19:54:31.512Z,47.60
2018-09-24T19:57:05.067Z,49.00
2018-09-24T19:59:39.099Z,48.80
2018-09-24T20:02:12.906Z,49.10
2018-09-24T20:04:46.892Z,49.50
2018-09-24T20:07:20.705Z,49.10
2018-09-24T20:09:54.457Z,50.10
2018-09-24T20:12:28.193Z,50.00
2018-09-24T20:15:07.028Z,50.80
2018-09-24T20:17:41.104Z,51.00
2018-09-24T20:20:14.957Z,51.80
2018-09-24T20:22:48.783Z,52.50
2018-09-24T20:25:22.523Z,53.60
2018-09-24T20:27:56.395Z,53.40
2018-09-24T20:30:31.199Z,53.70
2018-09-24T20:33:05.160Z,54.40
2018-09-24T20:35:38.900Z,55.70
2018-09-24T20:38:12.710Z,55.10
2018-09-24T20:40:46.519Z,55.50
2018-09-24T20:43:20.591Z,56.70
2018-09-24T20:45:54.434Z,56.30
2018-09-24T20:48:28.184Z,55.80
2018-09-24T20:51:01.914Z,56.10
2018-09-24T20:53:35.918Z,57.00
2018-09-24T20:56:09.944Z,58.40
2018-09-24T20:58:43.729Z,57.70
2018-09-24T21:01:17.301Z,58.00
2018-09-24T21:03:51.222Z,58.70
2018-09-24T21:06:25.032Z,58.00
2018-09-24T21:08:58.815Z,58.60
2018-09-24T21:11:32.599Z,59.70
2018-09-24T21:14:06.511Z,59.70
2018-09-24T21:16:40.078Z,59.70
2018-09-24T21:19:13.839Z,59.70
2018-09-24T21:21:47.778Z,59.70
2018-09-24T21:24:21.447Z,59.70
2018-09-24T21:26:55.087Z,59.70
2018-09-24T21:29:28.868Z,59.70
2018-09-24T21:32:02.659Z,59.70
2018-09-24T21:34:36.511Z,59.50
2018-09-24T21:37:10.277Z,59.60
2018-09-24T21:39:44.090Z,59.60
2018-09-24T21:42:17.692Z,59.60
2018-09-24T21:44:52.249Z,59.60
2018-09-24T21:47:26.096Z,60.00
2018-09-24T21:50:00.009Z,59.60
2018-09-24T21:52:33.859Z,60.00
2018-09-24T21:55:07.615Z,60.60
2018-09-24T21:57:41.253Z,60.00
2018-09-24T22:00:15.070Z,62.00
2018-09-24T22:02:48.802Z,62.10
2018-09-24T22:05:22.795Z,62.00
2018-09-24T22:07:56.641Z,62.00
2018-09-24T22:10:30.357Z,64.10
2018-09-24T22:13:04.079Z,63.50
2018-09-24T22:15:37.958Z,64.10
2018-09-24T22:18:11.668Z,62.70
2018-09-24T22:20:45.391Z,63.30
2018-09-24T22:23:19.154Z,63.70
2018-09-24T22:25:53.456Z,64.50
2018-09-24T22:28:27.212Z,63.40
2018-09-24T22:31:01.060Z,66.00
2018-09-24T22:33:34.891Z,65.00
2018-09-24T22:36:08.600Z,65.30
2018-09-24T22:38:42.352Z,66.00
2018-09-24T22:41:16.289Z,65.50
2018-09-24T22:43:49.991Z,65.80
2018-09-24T22:46:23.683Z,65.90
2018-09-24T22:48:57.353Z,67.20
2018-09-24T22:51:31.016Z,67.70
2018-09-24T22:54:04.844Z,67.00
2018-09-24T22:56:38.713Z,66.80
2018-09-24T22:59:12.416Z,68.00
2018-09-24T23:01:46.226Z,68.40
2018-09-24T23:04:19.981Z,68.50
2018-09-24T23:06:53.795Z,69.90
2018-09-24T23:09:27.627Z,68.90
2018-09-24T23:12:01.463Z,69.40
2018-09-24T23:14:35.284Z,70.00
2018-09-24T23:17:09.535Z,69.80
2018-09-24T23:19:43.538Z,69.30
2018-09-24T23:22:17.149Z,69.30
2018-09-24T23:24:51.177Z,69.20
2018-09-24T23:27:25.756Z,69.80
2018-09-24T23:29:59.516Z,69.20
2018-09-24T23:32:33.374Z,69.20
2018-09-24T23:35:07.099Z,69.00
2018-09-24T23:37:40.804Z,69.10
2018-09-24T23:40:15.254Z,70.80
2018-09-24T23:42:48.906Z,70.90
2018-09-24T23:45:22.591Z,71.40
2018-09-24T23:47:56.332Z,70.50
2018-09-24T23:50:30.037Z,71.70
2018-09-24T23:53:03.710Z,72.20
2018-09-24T23:55:37.457Z,73.00
2018-09-24T23:58:11.903Z,74.20
